Temp: 7.2°C   Baro: 1023.7mb
  Wind: 0.0mph   Dir: NE (50°)
  Rain: 0.0mm (0.0mm/hr)
  Solar: 0W/m2  Hum: 84%
 
Bath Spa Weather Historical Data
Daily Summary for February 11, 2019 Units:  English    Metric   Both
Next Day »
Daily Weekly Monthly Yearly Custom
  High: Low: Average:
Temperature: 49.5 °F 35.4 °F 42.4 °F
Dew Point: 41 °F 33.3 °F 37.6 °F
Humidity: 92% 69% 83%
Wind Speed: 18mph 0mph 2mph
Wind Gust: 27mph - -
Wind direction- - West
Pressure: 30.5 in 29.8 in -
Precipitation: 0.01 in    
Historical Graphs
 
 
Tabular Data for February 11, 2019
Time Temperature Dew Point Pressure Wind direction Wind Speed Wind Gust Humidity Rainfall Rate (Hourly) solar
00:04 43.9 °F 39.9 °F 29.8 in West 13 mph 21 mph 86% 0.02 in 0.00 W/m2
00:09 44.1 °F 40.1 °F 29.8 in NW 8.9 mph 27 mph 86% 0.02 in 0.00 W/m2
00:14 44.1 °F 40.1 °F 29.8 in WNW 8.1 mph 18 mph 86% 0.02 in 0.00 W/m2
00:19 44.1 °F 40.1 °F 29.8 in West 10.1 mph 17 mph 86% 0.01 in 0.00 W/m2
00:24 44.1 °F 40.5 °F 29.8 in WNW 4 mph 11 mph 87% 0.01 in 0.00 W/m2
00:29 44.1 °F 40.1 °F 29.8 in WNW 14.1 mph 18 mph 86% 0 in 0.00 W/m2
00:34 44.1 °F 40.1 °F 29.8 in NW 6 mph 18 mph 86% 0 in 0.00 W/m2
00:39 44.1 °F 40.1 °F 29.8 in West 12.1 mph 17 mph 86% 0 in 0.00 W/m2
00:44 44.2 °F 40.3 °F 29.8 in WNW 18 mph 18 mph 86% 0 in 0.00 W/m2
00:49 44.1 °F 40.1 °F 29.8 in NW 11 mph 14 mph 86% 0 in 0.00 W/m2
00:54 44.1 °F 40.1 °F 29.9 in WNW 8.1 mph 11 mph 86% 0 in 0.00 W/m2
00:59 43.9 °F 40.3 °F 29.9 in WNW 6.9 mph 13 mph 87% 0 in 0.00 W/m2
01:04 43.7 °F 40.1 °F 29.9 in West 8.1 mph 15 mph 87% 0 in 0.00 W/m2
01:09 43.7 °F 40.1 °F 29.9 in WNW 10.1 mph 14 mph 87% 0 in 0.00 W/m2
01:14 43.9 °F 40.3 °F 29.9 in West 8.1 mph 12 mph 87% 0 in 0.00 W/m2
01:19 43.9 °F 39.9 °F 29.9 in WNW 6.9 mph 11 mph 86% 0 in 0.00 W/m2
01:24 43.9 °F 39.9 °F 29.9 in NW 8.9 mph 14 mph 86% 0 in 0.00 W/m2
01:29 43.7 °F 39.7 °F 29.9 in WNW 6 mph 14 mph 86% 0 in 0.00 W/m2
01:34 43.7 °F 39.7 °F 29.9 in WNW 6 mph 7 mph 86% 0 in 0.00 W/m2
01:39 43.5 °F 39.6 °F 29.9 in WNW 10.1 mph 12 mph 86% 0 in 0.00 W/m2
01:44 43.7 °F 39.7 °F 29.9 in WNW 4.9 mph 8 mph 86% 0 in 0.00 W/m2
01:49 43.5 °F 39.6 °F 29.9 in WNW 15 mph 15 mph 86% 0 in 0.00 W/m2
01:54 43.7 °F 39.7 °F 29.9 in NW 4.9 mph 11 mph 86% 0 in 0.00 W/m2
01:59 43.7 °F 39.7 °F 29.9 in NW 6.9 mph 12 mph 86% 0 in 0.00 W/m2
02:04 43.9 °F 39.9 °F 29.9 in West 8.9 mph 14 mph 86% 0 in 0.00 W/m2
02:09 43.9 °F 39.7 °F 29.9 in NW 6.9 mph 10 mph 85% 0 in 0.00 W/m2
02:14 44.1 °F 39.9 °F 29.9 in WNW 6.9 mph 12 mph 85% 0 in 0.00 W/m2
02:19 44.1 °F 39.6 °F 29.9 in WNW 14 mph 14 mph 84% 0 in 0.00 W/m2
02:24 44.2 °F 39.4 °F 29.9 in NW 6 mph 10 mph 83% 0 in 0.00 W/m2
02:29 44.2 °F 39 °F 29.9 in NW 6.9 mph 16 mph 82% 0.01 in 0.00 W/m2
02:34 44.2 °F 38.8 °F 29.9 in NW 8.9 mph 12 mph 81% 0.01 in 0.00 W/m2
02:39 44.2 °F 38.5 °F 29.9 in NW 2 mph 13 mph 80% 0.01 in 0.00 W/m2
02:44 44.2 °F 38.5 °F 29.9 in WNW 4.9 mph 11 mph 80% 0.01 in 0.00 W/m2
02:49 44.4 °F 38.7 °F 29.9 in NW 6.9 mph 11 mph 80% 0.01 in 0.00 W/m2
02:54 44.2 °F 38.5 °F 29.9 in NNW 6 mph 12 mph 80% 0.01 in 0.00 W/m2
02:59 44.2 °F 38.5 °F 29.9 in NW 4.9 mph 14 mph 80% 0.01 in 0.00 W/m2
03:04 44.2 °F 38.5 °F 30 in NNW 8.1 mph 16 mph 80% 0.01 in 0.00 W/m2
03:09 44.2 °F 38.1 °F 30 in NW 8.9 mph 13 mph 79% 0.01 in 0.00 W/m2
03:14 44.1 °F 37.9 °F 30 in NW 8.1 mph 10 mph 79% 0.01 in 0.00 W/m2
03:19 44.1 °F 38.3 °F 30 in NW 6 mph 12 mph 80% 0.01 in 0.00 W/m2
03:24 44.1 °F 38.3 °F 30 in WNW 0.9 mph 9 mph 80% 0.01 in 0.00 W/m2
03:29 44.1 °F 38.3 °F 30 in NW 2 mph 9 mph 80% 0 in 0.00 W/m2
03:34 43.9 °F 38.1 °F 30 in NNE 6 mph 6 mph 80% 0 in 0.00 W/m2
03:39 43.7 °F 37.9 °F 30 in NW 2.9 mph 5 mph 80% 0 in 0.00 W/m2
03:44 43.7 °F 38.3 °F 30 in NNE 11 mph 11 mph 81% 0 in 0.00 W/m2
03:49 43.5 °F 38.1 °F 30 in NW 2 mph 9 mph 81% 0 in 0.00 W/m2
03:54 43.3 °F 37.9 °F 30 in North 2.9 mph 4 mph 81% 0 in 0.00 W/m2
03:59 43.2 °F 37.8 °F 30 in North 0.9 mph 6 mph 81% 0 in 0.00 W/m2
04:04 43.2 °F 38.1 °F 30 in Calm   5 mph 82% 0 in 0.00 W/m2
04:09 42.8 °F 37.8 °F 30 in NNE 6 mph 7 mph 82% 0 in 0.00 W/m2
04:14 42.6 °F 37.2 °F 30 in NNE 6 mph 8 mph 81% 0 in 0.00 W/m2
04:19 42.4 °F 37 °F 30 in NNW 4 mph 4 mph 81% 0 in 0.00 W/m2
04:24 42.4 °F 37 °F 30 in NNW 0.9 mph 4 mph 81% 0 in 0.00 W/m2
04:29 42.4 °F 37.4 °F 30 in Calm   1 mph 82% 0 in 0.00 W/m2
04:34 42.3 °F 37.2 °F 30 in NNW 0.9 mph 2 mph 82% 0 in 0.00 W/m2
04:39 41.9 °F 36.9 °F 30 in NNW 0.9 mph 1 mph 82% 0 in 0.00 W/m2
04:44 41.7 °F 36.7 °F 30 in Calm   1 mph 82% 0 in 0.00 W/m2
04:49 41.4 °F 36.3 °F 30 in NNW 2 mph 2 mph 82% 0 in 0.00 W/m2
04:54 41 °F 36.3 °F 30 in Calm   1 mph 83% 0 in 0.00 W/m2
04:59 40.8 °F 36.1 °F 30 in Calm     83% 0 in 0.00 W/m2
05:04 40.5 °F 35.8 °F 30.1 in NNW 2 mph 2 mph 83% 0 in 0.00 W/m2
05:09 39.9 °F 35.4 °F 30.1 in Calm   2 mph 84% 0 in 0.00 W/m2
05:14 39.6 °F 35.4 °F 30.1 in Calm   2 mph 85% 0 in 0.00 W/m2
05:19 39.4 °F 35.2 °F 30.1 in Calm     85% 0 in 0.00 W/m2
05:24 39.2 °F 35.4 °F 30.1 in Calm     86% 0 in 0.00 W/m2
05:29 39 °F 35.2 °F 30.1 in NNW 1 mph 1 mph 86% 0 in 0.00 W/m2
05:34 39 °F 35.2 °F 30.1 in Calm     86% 0 in 0.00 W/m2
05:39 38.8 °F 35.1 °F 30.1 in Calm     86% 0 in 0.00 W/m2
05:44 38.3 °F 34.7 °F 30.1 in Calm     87% 0 in 0.00 W/m2
05:49 37.9 °F 34.3 °F 30.1 in Calm     87% 0 in 0.00 W/m2
05:54 37.9 °F 34.3 °F 30.1 in Calm     87% 0 in 0.00 W/m2
05:59 37.9 °F 34.7 °F 30.1 in Calm     88% 0 in 0.00 W/m2
06:04 37.8 °F 34.5 °F 30.1 in Calm     88% 0 in 0.00 W/m2
06:09 37.9 °F 35.1 °F 30.1 in Calm     89% 0 in 0.00 W/m2
06:14 37.8 °F 34.9 °F 30.1 in Calm     89% 0 in 0.00 W/m2
06:19 37.8 °F 34.9 °F 30.1 in Calm     89% 0 in 0.00 W/m2
06:24 37.4 °F 34.5 °F 30.1 in Calm     89% 0 in 0.00 W/m2
06:29 37.2 °F 34.3 °F 30.1 in Calm     89% 0 in 0.00 W/m2
06:34 37.2 °F 34.3 °F 30.1 in NNW 2 mph 2 mph 89% 0 in 0.00 W/m2
06:39 37.2 °F 34.5 °F 30.1 in NNW 2 mph 4 mph 90% 0 in 0.00 W/m2
06:44 37.2 °F 34.5 °F 30.1 in Calm     90% 0 in 0.00 W/m2
06:49 37 °F 34.3 °F 30.1 in NNW 0.9 mph 2 mph 90% 0 in 0.00 W/m2
06:54 36.9 °F 34.2 °F 30.1 in Calm   1 mph 90% 0 in 0.00 W/m2
06:59 36.9 °F 34.2 °F 30.1 in Calm     90% 0 in 0.00 W/m2
07:04 36.7 °F 34 °F 30.1 in Calm   1 mph 90% 0 in 0.00 W/m2
07:09 36.9 °F 34.5 °F 30.1 in Calm   2 mph 91% 0 in 0.00 W/m2
07:14 36.7 °F 34.3 °F 30.1 in Calm   1 mph 91% 0 in 0.00 W/m2
07:19 36.5 °F 34.2 °F 30.2 in Calm   1 mph 91% 0 in 0.00 W/m2
07:24 36.5 °F 34.2 °F 30.2 in Calm     91% 0 in 0.00 W/m2
07:29 36.3 °F 34 °F 30.2 in Calm     91% 0 in 0.00 W/m2
07:34 36.3 °F 34 °F 30.2 in Calm     91% 0 in 5.00 W/m2
07:39 36.1 °F 33.8 °F 30.2 in Calm     91% 0 in 9.00 W/m2
07:44 36 °F 33.6 °F 30.2 in Calm     91% 0 in 12.00 W/m2
07:49 36 °F 33.6 °F 30.2 in Calm     91% 0 in 16.00 W/m2
07:54 35.8 °F 33.4 °F 30.2 in Calm     91% 0 in 19.00 W/m2
07:59 36 °F 33.6 °F 30.2 in Calm     91% 0 in 21.00 W/m2
08:04 36 °F 33.8 °F 30.2 in Calm     92% 0 in 25.00 W/m2
08:09 36.3 °F 34.2 °F 30.2 in Calm     92% 0 in 26.00 W/m2
08:14 36.5 °F 34.3 °F 30.2 in Calm     92% 0 in 28.00 W/m2
08:19 36.5 °F 34.3 °F 30.2 in Calm     92% 0 in 32.00 W/m2
08:24 36.9 °F 34.7 °F 30.2 in Calm     92% 0 in 33.00 W/m2
08:29 37.4 °F 35.2 °F 30.2 in Calm     92% 0 in 35.00 W/m2
08:34 37.8 °F 35.6 °F 30.2 in Calm     92% 0 in 35.00 W/m2
08:39 37.8 °F 35.6 °F 30.2 in Calm   1 mph 92% 0 in 35.00 W/m2
08:44 38.7 °F 36.5 °F 30.2 in NNW 2 mph 4 mph 92% 0 in 37.00 W/m2
08:49 39 °F 36.7 °F 30.2 in NNW 2 mph 3 mph 91% 0 in 44.00 W/m2
08:54 39.6 °F 36.5 °F 30.2 in Calm   3 mph 89% 0 in 47.00 W/m2
08:59 39.9 °F 36.7 °F 30.2 in Calm   2 mph 88% 0 in 46.00 W/m2
09:04 40.3 °F 36.7 °F 30.2 in NNW 0.9 mph 3 mph 87% 0 in 53.00 W/m2
09:09 40.6 °F 36.9 °F 30.2 in Calm   1 mph 86% 0 in 62.00 W/m2
09:14 41 °F 37.2 °F 30.2 in Calm   3 mph 86% 0 in 74.00 W/m2
09:19 41.5 °F 37.4 °F 30.2 in NNW 2 mph 2 mph 85% 0 in 102.00 W/m2
09:24 41.7 °F 37.2 °F 30.3 in Calm   3 mph 84% 0 in 107.00 W/m2
09:29 41.5 °F 37 °F 30.3 in NNW 4 mph 4 mph 84% 0 in 98.00 W/m2
09:34 41.7 °F 37.2 °F 30.3 in Calm   1 mph 84% 0 in 90.00 W/m2
09:39 41.9 °F 37.8 °F 30.3 in Calm   1 mph 85% 0 in 83.00 W/m2
09:44 41.9 °F 37.4 °F 30.3 in Calm   1 mph 84% 0 in 79.00 W/m2
09:49 42.1 °F 37.6 °F 30.3 in Calm   3 mph 84% 0 in 74.00 W/m2
09:54 42.3 °F 37.8 °F 30.3 in Calm     84% 0 in 69.00 W/m2
09:59 42.3 °F 37.8 °F 30.3 in Calm     84% 0 in 69.00 W/m2
10:04 42.3 °F 37.8 °F 30.3 in Calm     84% 0 in 91.00 W/m2
10:09 42.1 °F 37.6 °F 30.3 in Calm     84% 0 in 100.00 W/m2
10:14 42.3 °F 37.8 °F 30.3 in Calm   1 mph 84% 0 in 90.00 W/m2
10:19 42.4 °F 37.9 °F 30.3 in NNW 3 mph 3 mph 84% 0 in 95.00 W/m2
10:24 42.4 °F 37.9 °F 30.3 in NNW 2.9 mph 3 mph 84% 0 in 113.00 W/m2
10:29 42.6 °F 38.1 °F 30.3 in Calm     84% 0 in 121.00 W/m2
10:34 42.8 °F 38.3 °F 30.3 in Calm     84% 0 in 118.00 W/m2
10:39 43.2 °F 38.7 °F 30.3 in NW 2 mph 2 mph 84% 0 in 130.00 W/m2
10:44 43.5 °F 39 °F 30.3 in NW 3 mph 3 mph 84% 0 in 341.00 W/m2
10:49 44.1 °F 39.2 °F 30.3 in Calm     83% 0 in 264.00 W/m2
10:54 44.8 °F 39.9 °F 30.3 in Calm   2 mph 83% 0 in 255.00 W/m2
10:59 45.1 °F 39.7 °F 30.3 in Calm   4 mph 81% 0 in 366.00 W/m2
11:04 45.5 °F 40.1 °F 30.3 in NW 2.9 mph 4 mph 81% 0 in 323.00 W/m2
11:09 45.9 °F 40.3 °F 30.3 in Calm   6 mph 81% 0 in 193.00 W/m2
11:14 46 °F 40.3 °F 30.3 in WNW 6 mph 6 mph 80% 0 in 227.00 W/m2
11:19 45.9 °F 39.7 °F 30.3 in WNW 4.9 mph 7 mph 79% 0 in 246.00 W/m2
11:24 45.9 °F 39.7 °F 30.3 in WNW 2 mph 5 mph 79% 0 in 230.00 W/m2
11:29 45.9 °F 39.4 °F 30.3 in Calm   5 mph 78% 0 in 211.00 W/m2
11:34 46.4 °F 39.6 °F 30.3 in WNW 2 mph 6 mph 77% 0 in 265.00 W/m2
11:39 46.8 °F 39.9 °F 30.3 in WNW 2 mph 4 mph 77% 0 in 246.00 W/m2
11:44 47.1 °F 39.6 °F 30.3 in West 4 mph 5 mph 75% 0 in 336.00 W/m2
11:49 47.7 °F 40.1 °F 30.3 in West 4.9 mph 5 mph 75% 0 in 480.00 W/m2
11:54 48.6 °F 41 °F 30.3 in Calm   3 mph 75% 0 in 404.00 W/m2
11:59 48 °F 39.4 °F 30.3 in West 6.9 mph 11 mph 72% 0 in 255.00 W/m2
12:04 48 °F 40.1 °F 30.3 in NW 2.9 mph 7 mph 74% 0 in 258.00 W/m2
12:09 47.8 °F 39.6 °F 30.3 in West 2.9 mph 6 mph 73% 0 in 244.00 W/m2
12:14 48 °F 40.1 °F 30.3 in NW 9 mph 9 mph 74% 0 in 181.00 W/m2
12:19 48 °F 39.7 °F 30.3 in Calm   4 mph 73% 0 in 197.00 W/m2
12:24 48 °F 39.7 °F 30.3 in NW 6.9 mph 7 mph 73% 0 in 229.00 W/m2
12:29 48.2 °F 39.6 °F 30.3 in West 0.9 mph 6 mph 72% 0 in 253.00 W/m2
12:34 48.2 °F 39.6 °F 30.3 in NW 2.9 mph 10 mph 72% 0 in 195.00 W/m2
12:39 48 °F 39 °F 30.3 in NNW 6 mph 9 mph 71% 0 in 190.00 W/m2
12:44 48 °F 39 °F 30.3 in NW 4.9 mph 8 mph 71% 0 in 218.00 W/m2
12:49 48 °F 39.4 °F 30.3 in NW 6 mph 8 mph 72% 0 in 193.00 W/m2
12:54 48 °F 39.4 °F 30.3 in NW 2 mph 5 mph 72% 0 in 190.00 W/m2
12:59 48.2 °F 39.6 °F 30.3 in WNW 4.9 mph 6 mph 72% 0 in 241.00 W/m2
13:04 48.4 °F 39.4 °F 30.3 in NW 6 mph 9 mph 71% 0 in 308.00 W/m2
13:09 48.2 °F 39.2 °F 30.3 in WNW 2 mph 8 mph 71% 0 in 227.00 W/m2
13:14 48.7 °F 39.7 °F 30.3 in NW 2 mph 9 mph 71% 0 in 204.00 W/m2
13:19 48.7 °F 39.7 °F 30.3 in NNW 2 mph 8 mph 71% 0 in 272.00 W/m2
13:24 49.5 °F 40.1 °F 30.3 in WNW 2 mph 5 mph 70% 0 in 469.00 W/m2
13:29 49.1 °F 39.7 °F 30.3 in WNW 2.9 mph 9 mph 70% 0 in 171.00 W/m2
13:34 48.9 °F 39.9 °F 30.3 in West 4.9 mph 7 mph 71% 0 in 163.00 W/m2
13:39 48.6 °F 39.6 °F 30.3 in West 2.9 mph 8 mph 71% 0 in 158.00 W/m2
13:44 48.7 °F 40.1 °F 30.3 in West 2 mph 7 mph 72% 0 in 134.00 W/m2
13:49 48.6 °F 39.9 °F 30.3 in Calm   4 mph 72% 0 in 197.00 W/m2
13:54 48.7 °F 40.1 °F 30.4 in West 2.9 mph 6 mph 72% 0 in 236.00 W/m2
13:59 48.7 °F 40.1 °F 30.4 in NW 0.9 mph 6 mph 72% 0 in 190.00 W/m2
14:04 48.9 °F 40.3 °F 30.4 in West 4 mph 5 mph 72% 0 in 304.00 W/m2
14:09 49.1 °F 40.5 °F 30.4 in NW 4.9 mph 6 mph 72% 0 in 214.00 W/m2
14:14 49.1 °F 40.1 °F 30.4 in NW 2 mph 4 mph 71% 0 in 153.00 W/m2
14:19 49.1 °F 39.7 °F 30.4 in NNE 6 mph 6 mph 70% 0 in 139.00 W/m2
14:24 48.9 °F 39.6 °F 30.4 in North 0.9 mph 6 mph 70% 0 in 142.00 W/m2
14:29 49.1 °F 39.7 °F 30.4 in NNE 7 mph 7 mph 70% 0 in 95.00 W/m2
14:34 48.9 °F 39.2 °F 30.4 in North 2 mph 6 mph 69% 0 in 339.00 W/m2
14:39 49.1 °F 39.4 °F 30.4 in NNE 4 mph 6 mph 69% 0 in 81.00 W/m2
14:44 49.1 °F 39.7 °F 30.4 in NE 2.9 mph 5 mph 70% 0 in 72.00 W/m2
14:49 49.1 °F 39.7 °F 30.4 in NE 2 mph 3 mph 70% 0 in 60.00 W/m2
14:54 48.7 °F 39.4 °F 30.4 in Calm   2 mph 70% 0 in 67.00 W/m2
14:59 48.7 °F 39.7 °F 30.4 in NE 0.9 mph 2 mph 71% 0 in 65.00 W/m2
15:04 48.7 °F 39.7 °F 30.4 in NE 0.9 mph 1 mph 71% 0 in 69.00 W/m2
15:09 48.6 °F 39.6 °F 30.4 in Calm   1 mph 71% 0 in 81.00 W/m2
15:14 48.7 °F 39.7 °F 30.4 in NE 0.9 mph 3 mph 71% 0 in 84.00 W/m2
15:19 48.9 °F 39.9 °F 30.4 in Calm   2 mph 71% 0 in 81.00 W/m2
15:24 48.9 °F 39.6 °F 30.4 in Calm   1 mph 70% 0 in 60.00 W/m2
15:29 48.9 °F 39.9 °F 30.4 in Calm     71% 0 in 53.00 W/m2
15:34 48.9 °F 39.6 °F 30.4 in Calm     70% 0 in 44.00 W/m2
15:39 48.9 °F 39.6 °F 30.4 in Calm     70% 0 in 42.00 W/m2
15:44 48.9 °F 39.9 °F 30.4 in Calm     71% 0 in 44.00 W/m2
15:49 48.7 °F 40.1 °F 30.4 in Calm     72% 0 in 49.00 W/m2
15:54 48.6 °F 39.9 °F 30.4 in Calm     72% 0 in 49.00 W/m2
15:59 48.4 °F 40.1 °F 30.4 in Calm     73% 0 in 44.00 W/m2
16:04 48.2 °F 40.3 °F 30.4 in Calm     74% 0 in 47.00 W/m2
16:09 48.2 °F 40.3 °F 30.4 in Calm     74% 0 in 40.00 W/m2
16:14 48 °F 40.5 °F 30.4 in Calm     75% 0 in 30.00 W/m2
16:19 48 °F 40.5 °F 30.4 in Calm     75% 0 in 30.00 W/m2
16:24 47.7 °F 40.1 °F 30.4 in Calm     75% 0 in 28.00 W/m2
16:29 47.7 °F 40.5 °F 30.4 in Calm     76% 0 in 30.00 W/m2
16:34 47.3 °F 40.1 °F 30.4 in Calm     76% 0 in 25.00 W/m2
16:39 46.8 °F 39.6 °F 30.4 in Calm     76% 0 in 21.00 W/m2
16:44 46.4 °F 39.6 °F 30.4 in Calm     77% 0 in 19.00 W/m2
16:49 46.2 °F 39.4 °F 30.4 in Calm     77% 0 in 18.00 W/m2
16:54 46 °F 39.6 °F 30.4 in Calm     78% 0 in 16.00 W/m2
16:59 45.7 °F 39.2 °F 30.4 in Calm   1 mph 78% 0 in 14.00 W/m2
17:04 45.5 °F 39.4 °F 30.4 in Calm   3 mph 79% 0 in 11.00 W/m2
17:09 45.3 °F 39.2 °F 30.4 in NE 0.9 mph 1 mph 79% 0 in 7.00 W/m2
17:14 45.3 °F 39.6 °F 30.4 in NE 2 mph 2 mph 80% 0 in 0.00 W/m2
17:19 45.1 °F 39.4 °F 30.4 in NE 0.9 mph 2 mph 80% 0 in 0.00 W/m2
17:24 45.1 °F 39.4 °F 30.4 in Calm     80% 0 in 0.00 W/m2
17:29 45 °F 39.6 °F 30.4 in Calm     81% 0 in 0.00 W/m2
17:34 45 °F 39.6 °F 30.4 in Calm     81% 0 in 0.00 W/m2
17:39 44.6 °F 39.4 °F 30.4 in Calm     82% 0 in 0.00 W/m2
17:44 44.4 °F 39.2 °F 30.4 in Calm     82% 0 in 0.00 W/m2
17:49 44.2 °F 39.4 °F 30.4 in Calm     83% 0 in 0.00 W/m2
17:54 44.1 °F 39.2 °F 30.4 in Calm   2 mph 83% 0 in 0.00 W/m2
17:59 44.1 °F 39.2 °F 30.4 in NE 0.9 mph 1 mph 83% 0 in 0.00 W/m2
18:04 44.2 °F 39.4 °F 30.4 in Calm   1 mph 83% 0 in 0.00 W/m2
18:09 44.2 °F 39.4 °F 30.4 in Calm     83% 0 in 0.00 W/m2
18:14 44.2 °F 39.4 °F 30.4 in Calm     83% 0 in 0.00 W/m2
18:19 44.2 °F 39.4 °F 30.4 in Calm     83% 0 in 0.00 W/m2
18:24 44.1 °F 39.2 °F 30.4 in Calm     83% 0 in 0.00 W/m2
18:29 43.9 °F 39 °F 30.4 in Calm     83% 0 in 0.00 W/m2
18:34 43.5 °F 38.7 °F 30.4 in NNW 1 mph 1 mph 83% 0 in 0.00 W/m2
18:39 43.2 °F 38.7 °F 30.4 in Calm   1 mph 84% 0 in 0.00 W/m2
18:44 43.2 °F 38.7 °F 30.4 in Calm     84% 0 in 0.00 W/m2
18:49 43.2 °F 38.7 °F 30.4 in Calm     84% 0 in 0.00 W/m2
18:54 43 °F 38.8 °F 30.4 in Calm     85% 0 in 0.00 W/m2
18:59 42.6 °F 38.5 °F 30.4 in Calm     85% 0 in 0.00 W/m2
19:04 42.6 °F 38.5 °F 30.4 in Calm   1 mph 85% 0 in 0.00 W/m2
19:09 42.3 °F 38.1 °F 30.4 in Calm     85% 0 in 0.00 W/m2
19:14 42.3 °F 38.1 °F 30.4 in Calm     85% 0 in 0.00 W/m2
19:19 41.9 °F 37.8 °F 30.4 in Calm     85% 0 in 0.00 W/m2
19:24 41.9 °F 37.9 °F 30.4 in Calm     86% 0 in 0.00 W/m2
19:29 41.7 °F 37.8 °F 30.4 in Calm     86% 0 in 0.00 W/m2
19:34 41.5 °F 37.6 °F 30.4 in Calm   1 mph 86% 0 in 0.00 W/m2
19:39 41.2 °F 37.4 °F 30.4 in Calm     86% 0 in 0.00 W/m2
19:44 40.8 °F 37 °F 30.4 in Calm   1 mph 86% 0 in 0.00 W/m2
19:49 40.6 °F 37 °F 30.4 in Calm     87% 0 in 0.00 W/m2
19:54 40.6 °F 37 °F 30.4 in Calm   1 mph 87% 0 in 0.00 W/m2
19:59 40.3 °F 36.7 °F 30.4 in NNW 0.9 mph 1 mph 87% 0 in 0.00 W/m2
20:04 40.1 °F 36.9 °F 30.4 in NNW 0.9 mph 2 mph 88% 0 in 0.00 W/m2
20:09 39.9 °F 36.7 °F 30.4 in Calm   1 mph 88% 0 in 0.00 W/m2
20:14 39.7 °F 36.5 °F 30.5 in Calm     88% 0 in 0.00 W/m2
20:19 39.6 °F 36.3 °F 30.4 in NNW 2 mph 2 mph 88% 0 in 0.00 W/m2
20:24 39.4 °F 36.5 °F 30.5 in Calm   2 mph 89% 0 in 0.00 W/m2
20:29 39 °F 36.1 °F 30.4 in Calm   1 mph 89% 0 in 0.00 W/m2
20:34 39 °F 36.1 °F 30.5 in Calm     89% 0 in 0.00 W/m2
20:39 38.8 °F 36 °F 30.5 in Calm     89% 0 in 0.00 W/m2
20:44 38.8 °F 36 °F 30.5 in Calm     89% 0 in 0.00 W/m2
20:49 38.7 °F 35.8 °F 30.5 in Calm     89% 0 in 0.00 W/m2
20:54 38.5 °F 35.6 °F 30.5 in Calm   1 mph 89% 0 in 0.00 W/m2
20:59 38.3 °F 35.4 °F 30.5 in Calm     89% 0 in 0.00 W/m2
21:04 37.9 °F 35.1 °F 30.5 in Calm     89% 0 in 0.00 W/m2
21:09 37.9 °F 35.2 °F 30.5 in Calm   1 mph 90% 0 in 0.00 W/m2
21:14 37.8 °F 35.1 °F 30.5 in Calm     90% 0 in 0.00 W/m2
21:19 37.6 °F 34.9 °F 30.5 in Calm     90% 0 in 0.00 W/m2
21:24 37.6 °F 34.9 °F 30.5 in Calm     90% 0 in 0.00 W/m2
21:29 37.6 °F 34.9 °F 30.5 in Calm   1 mph 90% 0 in 0.00 W/m2
21:34 37.2 °F 34.5 °F 30.5 in Calm     90% 0 in 0.00 W/m2
21:39 37.2 °F 34.5 °F 30.5 in Calm     90% 0 in 0.00 W/m2
21:44 37.2 °F 34.9 °F 30.5 in Calm     91% 0 in 0.00 W/m2
21:49 37.2 °F 34.9 °F 30.5 in Calm     91% 0 in 0.00 W/m2
21:54 37 °F 34.7 °F 30.5 in Calm     91% 0 in 0.00 W/m2
21:59 37 °F 34.7 °F 30.5 in Calm     91% 0 in 0.00 W/m2
22:04 37 °F 34.7 °F 30.5 in Calm     91% 0 in 0.00 W/m2
22:09 36.9 °F 34.5 °F 30.5 in Calm     91% 0 in 0.00 W/m2
22:14 36.7 °F 34.3 °F 30.5 in Calm     91% 0 in 0.00 W/m2
22:19 36.5 °F 34.2 °F 30.5 in Calm     91% 0 in 0.00 W/m2
22:24 36.1 °F 33.8 °F 30.5 in NNW 1 mph 1 mph 91% 0 in 0.00 W/m2
22:29 36.3 °F 34 °F 30.5 in Calm     91% 0 in 0.00 W/m2
22:34 36.3 °F 34.2 °F 30.5 in Calm     92% 0 in 0.00 W/m2
22:39 36.3 °F 34.2 °F 30.5 in Calm     92% 0 in 0.00 W/m2
22:39 36.3 °F 34.2 °F 30.5 in Calm     92% 0 in 0.00 W/m2
22:45 36.1 °F 34 °F 30.5 in Calm     92% 0 in 0.00 W/m2
22:46 36.1 °F 34 °F 30.5 in Calm     92% 0 in 0.00 W/m2
22:58 35.8 °F 33.6 °F 30.5 in Calm     92% 0 in 0.00 W/m2
23:04 35.8 °F 33.6 °F 30.5 in Calm     92% 0 in 0.00 W/m2
23:09 35.6 °F 33.4 °F 30.5 in NNW 1 mph 1 mph 92% 0 in 0.00 W/m2
23:14 35.6 °F 33.4 °F 30.5 in Calm     92% 0 in 0.00 W/m2
23:19 35.8 °F 33.6 °F 30.5 in Calm     92% 0 in 0.00 W/m2
23:24 35.6 °F 33.4 °F 30.5 in Calm     92% 0 in 0.00 W/m2
23:29 35.4 °F 33.3 °F 30.5 in Calm     92% 0 in 0.00 W/m2
23:34 35.6 °F 33.4 °F 30.5 in Calm     92% 0 in 0.00 W/m2
23:39 35.6 °F 33.4 °F 30.5 in Calm     92% 0 in 0.00 W/m2
23:44 35.6 °F 33.4 °F 30.5 in Calm     92% 0 in 0.00 W/m2
23:49 35.6 °F 33.4 °F 30.5 in Calm     92% 0 in 0.00 W/m2
23:54 35.4 °F 33.3 °F 30.5 in Calm     92% 0 in 0.00 W/m2
23:59 35.4 °F 33.3 °F 30.5 in Calm     92% 0 in 0.00 W/m2